DLH451 KLAX-EDDF
Flight info
| Callsign | DLH451 |
|---|---|
| Flight time | N/A |
| Altitude | 31000 |
| Route | OSHNN1 BEALE Q842 WINEN DCT OCS J202 DDY DCT TIMMR DCT HML DCT 55N090W/N0479F330 60N080W DCT TEFFO/N0471F350 DCT BERUS/M082F350 DCT EMBOK DCT 63N050W 6230N04000W 61N030W 59N020W 58N015W DCT GOMUP/N0478F350 DCT GINGA DCT BRUCE/N0469F370 DCT CLYDE DCT GOW DCT GOSAM DCT TLA DCT NATEB DCT ROXAT DCT GODOS DCT AMGOD DCT SOGPO DCT DIXAT DIXAT1A |
| Aircraft | A343/H-SDE2E3FGHIJ4J5M1RWXY/LB1D1 |
Departure
| Time | 2026-04-26 00:18 |
|---|---|
| Airport | Los Angeles International Airport (KLAX) |
Arrival
| Time | N/A |
|---|---|
| Airport | Frankfurt Main Airport (EDDF) |
| Time | Latitude | Longitude | Altitude | Speed | Heading |
|---|---|---|---|---|---|
| 2026-04-25 23:36 | 33.94395 | -118.41131 | 96 ft | 0 kts | 84° |
| 2026-04-26 00:00 | 33.94395 | -118.41134 | 96 ft | 3 kts | 84° |
| 2026-04-26 00:01 | 33.94392 | -118.41165 | 96 ft | 4 kts | 84° |
| 2026-04-26 00:01 | 33.94390 | -118.41192 | 98 ft | 3 kts | 84° |
| 2026-04-26 00:01 | 33.94391 | -118.41222 | 96 ft | 4 kts | 120° |
| 2026-04-26 00:01 | 33.94409 | -118.41241 | 97 ft | 4 kts | 167° |
| 2026-04-26 00:02 | 33.94434 | -118.41246 | 96 ft | 4 kts | 173° |
| 2026-04-26 00:02 | 33.94444 | -118.41247 | 99 ft | 0 kts | 173° |
| 2026-04-26 00:08 | 33.94442 | -118.41247 | 99 ft | 2 kts | 173° |
| 2026-04-26 00:08 | 33.94416 | -118.41243 | 98 ft | 6 kts | 173° |
| 2026-04-26 00:09 | 33.94362 | -118.41235 | 98 ft | 10 kts | 173° |
| 2026-04-26 00:09 | 33.94279 | -118.41223 | 99 ft | 14 kts | 173° |
| 2026-04-26 00:09 | 33.94173 | -118.41206 | 99 ft | 16 kts | 173° |
| 2026-04-26 00:09 | 33.94069 | -118.41191 | 98 ft | 14 kts | 173° |
| 2026-04-26 00:10 | 33.93976 | -118.41176 | 100 ft | 13 kts | 173° |
| 2026-04-26 00:10 | 33.93894 | -118.41164 | 99 ft | 11 kts | 173° |
| 2026-04-26 00:10 | 33.93819 | -118.41153 | 99 ft | 9 kts | 173° |
| 2026-04-26 00:10 | 33.93775 | -118.41132 | 99 ft | 5 kts | 129° |
| 2026-04-26 00:11 | 33.93769 | -118.41080 | 97 ft | 9 kts | 87° |
| 2026-04-26 00:11 | 33.93777 | -118.40984 | 98 ft | 14 kts | 84° |
| 2026-04-26 00:11 | 33.93788 | -118.40874 | 97 ft | 13 kts | 82° |
| 2026-04-26 00:11 | 33.93799 | -118.40776 | 100 ft | 11 kts | 82° |
| 2026-04-26 00:12 | 33.93810 | -118.40673 | 101 ft | 15 kts | 83° |
| 2026-04-26 00:12 | 33.93825 | -118.40534 | 101 ft | 19 kts | 83° |
| 2026-04-26 00:12 | 33.93842 | -118.40361 | 100 ft | 23 kts | 83° |
| 2026-04-26 00:12 | 33.93863 | -118.40162 | 101 ft | 24 kts | 83° |
| 2026-04-26 00:13 | 33.93883 | -118.39967 | 103 ft | 23 kts | 83° |
| 2026-04-26 00:13 | 33.93902 | -118.39773 | 101 ft | 25 kts | 83° |
| 2026-04-26 00:13 | 33.93924 | -118.39556 | 98 ft | 26 kts | 83° |
| 2026-04-26 00:13 | 33.93947 | -118.39342 | 98 ft | 25 kts | 83° |
| 2026-04-26 00:14 | 33.93968 | -118.39137 | 100 ft | 24 kts | 83° |
| 2026-04-26 00:14 | 33.93988 | -118.38949 | 98 ft | 22 kts | 83° |
| 2026-04-26 00:14 | 33.94005 | -118.38773 | 98 ft | 20 kts | 83° |
| 2026-04-26 00:14 | 33.94021 | -118.38613 | 99 ft | 18 kts | 83° |
| 2026-04-26 00:15 | 33.94036 | -118.38468 | 102 ft | 17 kts | 83° |
| 2026-04-26 00:15 | 33.94050 | -118.38334 | 100 ft | 15 kts | 83° |
| 2026-04-26 00:15 | 33.94062 | -118.38211 | 99 ft | 15 kts | 83° |
| 2026-04-26 00:15 | 33.94075 | -118.38087 | 97 ft | 13 kts | 83° |
| 2026-04-26 00:16 | 33.94069 | -118.38012 | 99 ft | 8 kts | 129° |
| 2026-04-26 00:16 | 33.94025 | -118.37996 | 100 ft | 6 kts | 175° |
| 2026-04-26 00:16 | 33.93990 | -118.38001 | 100 ft | 4 kts | 213° |
| 2026-04-26 00:16 | 33.93984 | -118.38021 | 99 ft | 2 kts | 255° |
| 2026-04-26 00:17 | 33.93983 | -118.38033 | 99 ft | 0 kts | 262° |
| 2026-04-26 00:17 | 33.93983 | -118.38034 | 97 ft | 1 kts | 262° |
| 2026-04-26 00:17 | 33.93964 | -118.38207 | 102 ft | 47 kts | 263° |
| 2026-04-26 00:18 | 33.93904 | -118.38808 | 100 ft | 97 kts | 263° |
| 2026-04-26 00:18 | 33.93802 | -118.39798 | 104 ft | 139 kts | 263° |
| 2026-04-26 00:18 | 33.93672 | -118.41068 | 319 ft | 157 kts | 263° |
| 2026-04-26 00:18 | 33.93526 | -118.42366 | 859 ft | 156 kts | 261° |
| 2026-04-26 00:19 | 33.93389 | -118.43683 | 1341 ft | 162 kts | 262° |
| 2026-04-26 00:19 | 33.93226 | -118.45084 | 1521 ft | 176 kts | 262° |
| 2026-04-26 00:19 | 33.92865 | -118.46539 | 1716 ft | 189 kts | 243° |
| 2026-04-26 00:19 | 33.92033 | -118.47845 | 1843 ft | 206 kts | 230° |
| 2026-04-26 00:20 | 33.91021 | -118.49191 | 1990 ft | 225 kts | 229° |
| 2026-04-26 00:20 | 33.89962 | -118.50630 | 2293 ft | 239 kts | 231° |
| 2026-04-26 00:20 | 33.88851 | -118.52175 | 2758 ft | 247 kts | 231° |
| 2026-04-26 00:20 | 33.87734 | -118.53762 | 3437 ft | 248 kts | 231° |
| 2026-04-26 00:21 | 33.86462 | -118.55178 | 4045 ft | 253 kts | 213° |
| 2026-04-26 00:21 | 33.84792 | -118.55886 | 4630 ft | 261 kts | 186° |
| 2026-04-26 00:21 | 33.82981 | -118.55626 | 5192 ft | 266 kts | 168° |
| 2026-04-26 00:21 | 33.81172 | -118.55093 | 5733 ft | 269 kts | 169° |
| 2026-04-26 00:22 | 33.79342 | -118.54576 | 6325 ft | 270 kts | 170° |
| 2026-04-26 00:22 | 33.77502 | -118.54068 | 6873 ft | 271 kts | 171° |
| 2026-04-26 00:22 | 33.75658 | -118.53574 | 7418 ft | 272 kts | 171° |
| 2026-04-26 00:22 | 33.73802 | -118.53082 | 7947 ft | 274 kts | 171° |
| 2026-04-26 00:23 | 33.71931 | -118.52586 | 8486 ft | 276 kts | 170° |
| 2026-04-26 00:23 | 33.70174 | -118.51617 | 8978 ft | 286 kts | 142° |
| 2026-04-26 00:23 | 33.69037 | -118.49633 | 9487 ft | 295 kts | 114° |
| 2026-04-26 00:23 | 33.68337 | -118.47299 | 9926 ft | 300 kts | 112° |
| 2026-04-26 00:24 | 33.67637 | -118.44921 | 10265 ft | 307 kts | 113° |
| 2026-04-26 00:24 | 33.66913 | -118.42443 | 10431 ft | 321 kts | 112° |
| 2026-04-26 00:24 | 33.66169 | -118.39898 | 10603 ft | 333 kts | 112° |
| 2026-04-26 00:24 | 33.65384 | -118.37227 | 10763 ft | 345 kts | 112° |
| 2026-04-26 00:25 | 33.64628 | -118.34450 | 10965 ft | 358 kts | 106° |
| 2026-04-26 00:25 | 33.64442 | -118.31405 | 11225 ft | 372 kts | 92° |
| 2026-04-26 00:25 | 33.64460 | -118.28258 | 11424 ft | 383 kts | 92° |
| 2026-04-26 00:25 | 33.64484 | -118.25031 | 11656 ft | 391 kts | 92° |
| 2026-04-26 00:26 | 33.64541 | -118.21735 | 11904 ft | 401 kts | 86° |
| 2026-04-26 00:26 | 33.65267 | -118.18475 | 12220 ft | 410 kts | 65° |
| 2026-04-26 00:26 | 33.66899 | -118.15659 | 12518 ft | 416 kts | 43° |
| 2026-04-26 00:26 | 33.69152 | -118.13489 | 12903 ft | 417 kts | 33° |
| 2026-04-26 00:27 | 33.71534 | -118.11464 | 13292 ft | 422 kts | 33° |
| 2026-04-26 00:27 | 33.73938 | -118.09391 | 13667 ft | 427 kts | 34° |
| 2026-04-26 00:27 | 33.76352 | -118.07274 | 14051 ft | 431 kts | 34° |
| 2026-04-26 00:27 | 33.78783 | -118.05123 | 14298 ft | 438 kts | 34° |
| 2026-04-26 00:28 | 33.81248 | -118.02925 | 14573 ft | 444 kts | 35° |
| 2026-04-26 00:28 | 33.83730 | -118.00701 | 15042 ft | 445 kts | 35° |
| 2026-04-26 00:28 | 33.86213 | -117.98471 | 15453 ft | 446 kts | 35° |
| 2026-04-26 00:28 | 33.88697 | -117.96234 | 15977 ft | 445 kts | 35° |
| 2026-04-26 00:29 | 33.91176 | -117.94002 | 16531 ft | 445 kts | 35° |
| 2026-04-26 00:29 | 33.93662 | -117.91747 | 16907 ft | 449 kts | 36° |
| 2026-04-26 00:29 | 33.96158 | -117.89462 | 17305 ft | 452 kts | 36° |
| 2026-04-26 00:29 | 33.98671 | -117.87159 | 17701 ft | 454 kts | 36° |
| 2026-04-26 00:30 | 34.01160 | -117.84876 | 18086 ft | 458 kts | 36° |
| 2026-04-26 00:30 | 34.03697 | -117.82549 | 18483 ft | 460 kts | 36° |
| 2026-04-26 00:30 | 34.06260 | -117.80199 | 18792 ft | 464 kts | 36° |
| 2026-04-26 00:30 | 34.08780 | -117.77731 | 19101 ft | 469 kts | 44° |
| 2026-04-26 00:31 | 34.10978 | -117.74804 | 19421 ft | 472 kts | 50° |
| 2026-04-26 00:31 | 34.13064 | -117.71716 | 19700 ft | 476 kts | 51° |
| 2026-04-26 00:31 | 34.15153 | -117.68592 | 20011 ft | 479 kts | 51° |
| 2026-04-26 00:31 | 34.17256 | -117.65452 | 20324 ft | 482 kts | 51° |
| 2026-04-26 00:32 | 34.19372 | -117.62298 | 20667 ft | 484 kts | 51° |
| 2026-04-26 00:32 | 34.21497 | -117.59131 | 21028 ft | 487 kts | 51° |
| 2026-04-26 00:32 | 34.25805 | -117.52729 | 21448 ft | 494 kts | 51° |
| 2026-04-26 00:33 | 34.27945 | -117.49542 | 21752 ft | 496 kts | 51° |
| 2026-04-26 00:33 | 34.30123 | -117.46297 | 22010 ft | 498 kts | 51° |
| 2026-04-26 00:33 | 34.32318 | -117.43026 | 22342 ft | 500 kts | 51° |
| 2026-04-26 00:33 | 34.34509 | -117.39741 | 22611 ft | 503 kts | 52° |
| 2026-04-26 00:34 | 34.36718 | -117.36426 | 22869 ft | 506 kts | 52° |
| 2026-04-26 00:34 | 34.38935 | -117.33100 | 23124 ft | 509 kts | 52° |
| 2026-04-26 00:34 | 34.41164 | -117.29755 | 23344 ft | 512 kts | 52° |
| 2026-04-26 00:34 | 34.43403 | -117.26394 | 23592 ft | 514 kts | 52° |
| 2026-04-26 00:35 | 34.45655 | -117.23011 | 23851 ft | 516 kts | 52° |
| 2026-04-26 00:35 | 34.47884 | -117.19660 | 24079 ft | 518 kts | 52° |
| 2026-04-26 00:35 | 34.50147 | -117.16254 | 24255 ft | 519 kts | 52° |
| 2026-04-26 00:35 | 34.52412 | -117.12842 | 24563 ft | 519 kts | 52° |
| 2026-04-26 00:36 | 34.54683 | -117.09421 | 24794 ft | 521 kts | 52° |
| 2026-04-26 00:36 | 34.56996 | -117.06026 | 25060 ft | 522 kts | 51° |
| 2026-04-26 00:36 | 34.59332 | -117.02644 | 25284 ft | 523 kts | 51° |
| 2026-04-26 00:36 | 34.61671 | -116.99247 | 25475 ft | 526 kts | 51° |
| 2026-04-26 00:37 | 34.64017 | -116.95834 | 25699 ft | 527 kts | 51° |
| 2026-04-26 00:37 | 34.66370 | -116.92409 | 25921 ft | 529 kts | 51° |
| 2026-04-26 00:37 | 34.68724 | -116.88974 | 26150 ft | 530 kts | 51° |
| 2026-04-26 00:37 | 34.71084 | -116.85526 | 26295 ft | 532 kts | 51° |
| 2026-04-26 00:38 | 34.73446 | -116.82066 | 26508 ft | 533 kts | 51° |
| 2026-04-26 00:38 | 34.75814 | -116.78593 | 26738 ft | 534 kts | 51° |
| 2026-04-26 00:38 | 34.78188 | -116.75111 | 26886 ft | 536 kts | 51° |
| 2026-04-26 00:38 | 34.80575 | -116.71608 | 27050 ft | 538 kts | 51° |
| 2026-04-26 00:39 | 34.82964 | -116.68098 | 27290 ft | 539 kts | 51° |
| 2026-04-26 00:39 | 34.85358 | -116.64579 | 27470 ft | 540 kts | 51° |
| 2026-04-26 00:39 | 34.87826 | -116.61101 | 27626 ft | 542 kts | 48° |
| 2026-04-26 00:39 | 34.90390 | -116.57720 | 27828 ft | 544 kts | 47° |
| 2026-04-26 00:40 | 34.92954 | -116.54347 | 28117 ft | 542 kts | 47° |
| 2026-04-26 00:40 | 34.95504 | -116.50971 | 28375 ft | 542 kts | 48° |
| 2026-04-26 00:40 | 34.98022 | -116.47619 | 28519 ft | 543 kts | 48° |
| 2026-04-26 00:40 | 35.00569 | -116.44217 | 28709 ft | 543 kts | 48° |
| 2026-04-26 00:41 | 35.03116 | -116.40806 | 28930 ft | 543 kts | 48° |
| 2026-04-26 00:41 | 35.05660 | -116.37392 | 29134 ft | 543 kts | 48° |
| 2026-04-26 00:41 | 35.08196 | -116.33986 | 29389 ft | 542 kts | 48° |
| 2026-04-26 00:41 | 35.10740 | -116.30563 | 29629 ft | 542 kts | 48° |
| 2026-04-26 00:42 | 35.13270 | -116.27154 | 29893 ft | 542 kts | 48° |
| 2026-04-26 00:42 | 35.15798 | -116.23744 | 30039 ft | 542 kts | 48° |
| 2026-04-26 00:42 | 35.18341 | -116.20313 | 30140 ft | 544 kts | 48° |
| 2026-04-26 00:42 | 35.20879 | -116.16884 | 30326 ft | 544 kts | 48° |
| 2026-04-26 00:43 | 35.23421 | -116.13447 | 30462 ft | 545 kts | 48° |
| 2026-04-26 00:43 | 35.25962 | -116.10011 | 30662 ft | 544 kts | 48° |
| 2026-04-26 00:43 | 35.31003 | -116.03178 | 30752 ft | 543 kts | 48° |
| 2026-04-26 00:44 | 35.36054 | -115.96314 | 30759 ft | 542 kts | 48° |
| 2026-04-26 00:44 | 35.41090 | -115.89455 | 30762 ft | 541 kts | 48° |
| 2026-04-26 00:45 | 35.45301 | -115.83713 | 30773 ft | 540 kts | 48° |
| 2026-04-26 00:45 | 35.51130 | -115.75747 | 30779 ft | 540 kts | 48° |
| 2026-04-26 00:46 | 35.56145 | -115.68881 | 30783 ft | 540 kts | 48° |
| 2026-04-26 00:46 | 35.61160 | -115.61998 | 30786 ft | 540 kts | 48° |
| 2026-04-26 00:47 | 35.66156 | -115.55128 | 30770 ft | 539 kts | 48° |
| 2026-04-26 00:47 | 35.71149 | -115.48253 | 30773 ft | 539 kts | 48° |
| 2026-04-26 00:48 | 35.76139 | -115.41364 | 30771 ft | 538 kts | 48° |
| 2026-04-26 00:48 | 35.81117 | -115.34469 | 30786 ft | 539 kts | 48° |
| 2026-04-26 00:49 | 35.86089 | -115.27569 | 30781 ft | 538 kts | 48° |
| 2026-04-26 00:49 | 35.91055 | -115.20670 | 30772 ft | 537 kts | 48° |
| 2026-04-26 00:50 | 35.95973 | -115.13822 | 30774 ft | 536 kts | 48° |
| 2026-04-26 00:50 | 36.00920 | -115.06921 | 30773 ft | 537 kts | 48° |
| 2026-04-26 00:51 | 36.05866 | -115.00005 | 30740 ft | 536 kts | 48° |
| 2026-04-26 00:51 | 36.10780 | -114.93120 | 30674 ft | 537 kts | 48° |
| 2026-04-26 00:52 | 36.14888 | -114.87354 | 30678 ft | 537 kts | 48° |
| 2026-04-26 00:52 | 36.20440 | -114.81261 | 30666 ft | 532 kts | 28° |
| 2026-04-26 00:53 | 36.26871 | -114.76750 | 30662 ft | 531 kts | 25° |
| 2026-04-26 00:53 | 36.33417 | -114.72490 | 30651 ft | 532 kts | 25° |
| 2026-04-26 00:54 | 36.39974 | -114.68214 | 30641 ft | 532 kts | 25° |
| 2026-04-26 00:54 | 36.46499 | -114.63895 | 30630 ft | 532 kts | 25° |
| 2026-04-26 00:55 | 36.52972 | -114.59578 | 30629 ft | 531 kts | 25° |
| 2026-04-26 00:55 | 36.59516 | -114.55208 | 30625 ft | 530 kts | 25° |
| 2026-04-26 00:56 | 36.65982 | -114.50889 | 30630 ft | 530 kts | 25° |
| 2026-04-26 00:56 | 36.72475 | -114.46525 | 30623 ft | 531 kts | 26° |
| 2026-04-26 00:57 | 36.78791 | -114.41722 | 30626 ft | 531 kts | 31° |
| 2026-04-26 00:57 | 36.84989 | -114.36686 | 30631 ft | 531 kts | 31° |
| 2026-04-26 00:58 | 36.91194 | -114.31706 | 30630 ft | 529 kts | 30° |
| 2026-04-26 00:58 | 36.97416 | -114.26783 | 30631 ft | 529 kts | 30° |
| 2026-04-26 00:59 | 37.03643 | -114.21874 | 30644 ft | 529 kts | 30° |
| 2026-04-26 00:59 | 37.09836 | -114.16984 | 30644 ft | 529 kts | 30° |
| 2026-04-26 01:00 | 37.16059 | -114.12053 | 30664 ft | 529 kts | 30° |
| 2026-04-26 01:00 | 37.22279 | -114.07115 | 30668 ft | 529 kts | 30° |
| 2026-04-26 01:01 | 37.28491 | -114.02175 | 30675 ft | 528 kts | 30° |
| 2026-04-26 01:01 | 37.34688 | -113.97238 | 30672 ft | 527 kts | 30° |
| 2026-04-26 01:02 | 37.40884 | -113.92291 | 30673 ft | 527 kts | 30° |
| 2026-04-26 01:02 | 37.47076 | -113.87337 | 30686 ft | 527 kts | 30° |
| 2026-04-26 01:03 | 37.53217 | -113.82414 | 30684 ft | 527 kts | 30° |
| 2026-04-26 01:03 | 37.59400 | -113.77451 | 30685 ft | 527 kts | 30° |
| 2026-04-26 01:04 | 37.65575 | -113.72477 | 30688 ft | 527 kts | 30° |
| 2026-04-26 01:04 | 37.71746 | -113.67498 | 30689 ft | 526 kts | 30° |
| 2026-04-26 01:05 | 37.77915 | -113.62516 | 30689 ft | 526 kts | 30° |
| 2026-04-26 01:05 | 37.84084 | -113.57524 | 30690 ft | 526 kts | 30° |
| 2026-04-26 01:06 | 37.90240 | -113.52530 | 30686 ft | 526 kts | 30° |
| 2026-04-26 01:06 | 37.96064 | -113.46881 | 30683 ft | 529 kts | 38° |
| 2026-04-26 01:07 | 38.01580 | -113.40697 | 30677 ft | 530 kts | 40° |
| 2026-04-26 01:07 | 38.07041 | -113.34423 | 30675 ft | 530 kts | 40° |
| 2026-04-26 01:08 | 38.12500 | -113.28144 | 30670 ft | 530 kts | 40° |
| 2026-04-26 01:08 | 38.17972 | -113.21860 | 30693 ft | 530 kts | 40° |
| 2026-04-26 01:09 | 38.23445 | -113.15570 | 30713 ft | 530 kts | 40° |
| 2026-04-26 01:09 | 38.28915 | -113.09270 | 30737 ft | 530 kts | 40° |
| 2026-04-26 01:10 | 38.34344 | -113.03001 | 30757 ft | 531 kts | 39° |
| 2026-04-26 01:10 | 38.39828 | -112.96659 | 30758 ft | 531 kts | 40° |
| 2026-04-26 01:11 | 38.45294 | -112.90324 | 30758 ft | 531 kts | 40° |
| 2026-04-26 01:11 | 38.50759 | -112.83975 | 30740 ft | 531 kts | 40° |
| 2026-04-26 01:12 | 38.56221 | -112.77615 | 30717 ft | 531 kts | 40° |
| 2026-04-26 01:12 | 38.61677 | -112.71250 | 30709 ft | 531 kts | 40° |